ZM-0001 weather

Lilayi Airport
Lilayi, Lusaka Province, Zambia

Public forecast

Using degrees Celsius for public forecast. Weather courtesy of forecast.io.

Closest aviation weather report (METAR) to Lilayi Airport

Report is more than 6 hours old.

Closest report is Lusaka City Airport, 5.9 nm (11.0 km) N. Retrieved 2012/11/06 09:00 UTC (8 years ago):

FLLC 060900Z 08004KT CAVOK 30/06 Q1019

Closest aviation forecast (TAF) to Lilayi Airport

Forecast is more than 12 hours old.

Closest forecast is Kenneth Kaunda International Airport, 13.2 nm (24.4 km) NE. Retrieved 2020/07/07 18:00 UTC (16 hours ago):

TAF FLKK 071600Z 0718/0824 10005KT CAVOK BECMG 0802/0804 12005KT 9000 NSC BECMG 0807/0809 09010KT 9999 BKN030 BECMG 0814/0816 13005KT CAVOK